sensor_id;sensor_type;location;lat;lon;timestamp;P1;durP1;ratioP1;P2;durP2;ratioP2
17650;SDS011;26663;59.302;18.082;2022-09-27T00:01:58;4.10;;;2.03;;
17650;SDS011;26663;59.302;18.082;2022-09-27T00:05:03;3.08;;;1.80;;
17650;SDS011;26663;59.302;18.082;2022-09-27T00:08:09;3.13;;;1.88;;
17650;SDS011;26663;59.302;18.082;2022-09-27T00:11:14;2.58;;;1.80;;
17650;SDS011;26663;59.302;18.082;2022-09-27T00:14:27;2.10;;;1.90;;
17650;SDS011;26663;59.302;18.082;2022-09-27T00:17:31;2.35;;;1.90;;
17650;SDS011;26663;59.302;18.082;2022-09-27T00:20:36;1.58;;;1.58;;
17650;SDS011;26663;59.302;18.082;2022-09-27T00:23:40;1.85;;;1.45;;
17650;SDS011;26663;59.302;18.082;2022-09-27T00:26:44;1.83;;;1.77;;
17650;SDS011;26663;59.302;18.082;2022-09-27T00:29:50;1.67;;;1.58;;
17650;SDS011;26663;59.302;18.082;2022-09-27T00:32:54;2.38;;;1.80;;
17650;SDS011;26663;59.302;18.082;2022-09-27T00:36:02;3.05;;;1.50;;
17650;SDS011;26663;59.302;18.082;2022-09-27T00:39:08;3.80;;;1.88;;
17650;SDS011;26663;59.302;18.082;2022-09-27T00:42:12;1.75;;;1.40;;
17650;SDS011;26663;59.302;18.082;2022-09-27T00:45:19;1.30;;;1.30;;
17650;SDS011;26663;59.302;18.082;2022-09-27T00:48:24;1.70;;;1.60;;
17650;SDS011;26663;59.302;18.082;2022-09-27T00:51:32;3.03;;;1.70;;
17650;SDS011;26663;59.302;18.082;2022-09-27T00:54:38;1.60;;;1.50;;
17650;SDS011;26663;59.302;18.082;2022-09-27T00:57:44;1.48;;;1.38;;
17650;SDS011;26663;59.302;18.082;2022-09-27T01:00:51;2.72;;;1.48;;
17650;SDS011;26663;59.302;18.082;2022-09-27T01:04:00;2.00;;;1.65;;
17650;SDS011;26663;59.302;18.082;2022-09-27T01:07:09;1.52;;;1.52;;
17650;SDS011;26663;59.302;18.082;2022-09-27T01:10:13;1.30;;;1.30;;
17650;SDS011;26663;59.302;18.082;2022-09-27T01:13:19;1.80;;;1.70;;
17650;SDS011;26663;59.302;18.082;2022-09-27T01:16:33;1.85;;;1.50;;
17650;SDS011;26663;59.302;18.082;2022-09-27T01:19:56;1.58;;;1.30;;
17650;SDS011;26663;59.302;18.082;2022-09-27T01:23:37;2.90;;;1.40;;
17650;SDS011;26663;59.302;18.082;2022-09-27T01:31:15;1.38;;;1.27;;
17650;SDS011;26663;59.302;18.082;2022-09-27T01:34:24;3.45;;;1.50;;
17650;SDS011;26663;59.302;18.082;2022-09-27T01:37:35;1.45;;;1.35;;
17650;SDS011;26663;59.302;18.082;2022-09-27T01:40:44;2.50;;;1.40;;
17650;SDS011;26663;59.302;18.082;2022-09-27T01:44:25;1.20;;;1.20;;
17650;SDS011;26663;59.302;18.082;2022-09-27T01:47:43;1.63;;;1.33;;
17650;SDS011;26663;59.302;18.082;2022-09-27T01:51:17;1.70;;;1.20;;
17650;SDS011;26663;59.302;18.082;2022-09-27T01:54:24;1.30;;;1.30;;
17650;SDS011;26663;59.302;18.082;2022-09-27T01:58:04;2.95;;;1.40;;
17650;SDS011;26663;59.302;18.082;2022-09-27T02:01:13;2.92;;;1.35;;
17650;SDS011;26663;59.302;18.082;2022-09-27T02:04:20;1.27;;;1.27;;
17650;SDS011;26663;59.302;18.082;2022-09-27T02:07:52;2.63;;;1.40;;
17650;SDS011;26663;59.302;18.082;2022-09-27T02:11:00;3.13;;;1.40;;
17650;SDS011;26663;59.302;18.082;2022-09-27T02:14:10;3.38;;;1.55;;
17650;SDS011;26663;59.302;18.082;2022-09-27T02:17:29;3.97;;;1.33;;
17650;SDS011;26663;59.302;18.082;2022-09-27T02:20:43;2.83;;;1.50;;
17650;SDS011;26663;59.302;18.082;2022-09-27T02:23:53;1.40;;;1.40;;
17650;SDS011;26663;59.302;18.082;2022-09-27T02:27:00;1.50;;;1.50;;
17650;SDS011;26663;59.302;18.082;2022-09-27T02:30:11;1.42;;;1.40;;
17650;SDS011;26663;59.302;18.082;2022-09-27T02:33:21;3.05;;;1.65;;
17650;SDS011;26663;59.302;18.082;2022-09-27T02:36:30;1.58;;;1.58;;
17650;SDS011;26663;59.302;18.082;2022-09-27T02:39:34;2.13;;;1.52;;
17650;SDS011;26663;59.302;18.082;2022-09-27T02:42:41;2.47;;;1.60;;
17650;SDS011;26663;59.302;18.082;2022-09-27T02:45:52;1.70;;;1.60;;
17650;SDS011;26663;59.302;18.082;2022-09-27T02:49:08;1.83;;;1.73;;
17650;SDS011;26663;59.302;18.082;2022-09-27T02:52:39;1.70;;;1.60;;
17650;SDS011;26663;59.302;18.082;2022-09-27T02:55:51;2.92;;;2.00;;
17650;SDS011;26663;59.302;18.082;2022-09-27T02:59:44;1.42;;;1.42;;
17650;SDS011;26663;59.302;18.082;2022-09-27T03:03:08;3.08;;;1.52;;
17650;SDS011;26663;59.302;18.082;2022-09-27T03:06:25;1.90;;;1.80;;
17650;SDS011;26663;59.302;18.082;2022-09-27T03:09:40;2.65;;;1.60;;
17650;SDS011;26663;59.302;18.082;2022-09-27T03:12:46;3.35;;;1.90;;
17650;SDS011;26663;59.302;18.082;2022-09-27T03:15:51;3.45;;;1.63;;
17650;SDS011;26663;59.302;18.082;2022-09-27T03:19:24;2.10;;;1.52;;
17650;SDS011;26663;59.302;18.082;2022-09-27T03:23:02;1.95;;;1.33;;
17650;SDS011;26663;59.302;18.082;2022-09-27T03:26:11;2.13;;;1.83;;
17650;SDS011;26663;59.302;18.082;2022-09-27T03:29:15;2.60;;;1.95;;
17650;SDS011;26663;59.302;18.082;2022-09-27T03:32:25;1.80;;;1.50;;
17650;SDS011;26663;59.302;18.082;2022-09-27T03:35:49;2.05;;;1.73;;
17650;SDS011;26663;59.302;18.082;2022-09-27T03:38:53;6.93;;;1.60;;
17650;SDS011;26663;59.302;18.082;2022-09-27T03:41:59;2.50;;;1.90;;
17650;SDS011;26663;59.302;18.082;2022-09-27T03:45:03;3.38;;;1.50;;
17650;SDS011;26663;59.302;18.082;2022-09-27T03:48:12;2.05;;;1.60;;
17650;SDS011;26663;59.302;18.082;2022-09-27T03:51:16;4.00;;;1.38;;
17650;SDS011;26663;59.302;18.082;2022-09-27T03:54:21;2.38;;;1.70;;
17650;SDS011;26663;59.302;18.082;2022-09-27T03:57:27;4.25;;;1.60;;
17650;SDS011;26663;59.302;18.082;2022-09-27T04:00:33;2.85;;;1.65;;
17650;SDS011;26663;59.302;18.082;2022-09-27T04:03:38;1.65;;;1.50;;
17650;SDS011;26663;59.302;18.082;2022-09-27T04:06:45;1.80;;;1.70;;
17650;SDS011;26663;59.302;18.082;2022-09-27T04:09:50;1.52;;;1.48;;
17650;SDS011;26663;59.302;18.082;2022-09-27T04:12:56;2.33;;;2.00;;
17650;SDS011;26663;59.302;18.082;2022-09-27T04:16:04;2.50;;;1.73;;
17650;SDS011;26663;59.302;18.082;2022-09-27T04:19:21;1.52;;;1.40;;
17650;SDS011;26663;59.302;18.082;2022-09-27T04:22:38;1.40;;;1.40;;
17650;SDS011;26663;59.302;18.082;2022-09-27T04:25:45;1.55;;;1.45;;
17650;SDS011;26663;59.302;18.082;2022-09-27T04:29:04;1.50;;;1.40;;
17650;SDS011;26663;59.302;18.082;2022-09-27T04:32:15;1.75;;;1.65;;
17650;SDS011;26663;59.302;18.082;2022-09-27T04:35:44;2.05;;;1.40;;
17650;SDS011;26663;59.302;18.082;2022-09-27T04:39:08;1.70;;;1.60;;
17650;SDS011;26663;59.302;18.082;2022-09-27T04:42:16;3.03;;;1.55;;
17650;SDS011;26663;59.302;18.082;2022-09-27T04:45:22;1.52;;;1.48;;
17650;SDS011;26663;59.302;18.082;2022-09-27T04:48:27;1.50;;;1.50;;
17650;SDS011;26663;59.302;18.082;2022-09-27T04:51:31;1.45;;;1.42;;
17650;SDS011;26663;59.302;18.082;2022-09-27T04:54:35;1.65;;;1.60;;
17650;SDS011;26663;59.302;18.082;2022-09-27T04:57:45;1.60;;;1.50;;
17650;SDS011;26663;59.302;18.082;2022-09-27T05:00:50;4.15;;;1.70;;
17650;SDS011;26663;59.302;18.082;2022-09-27T05:04:26;4.78;;;1.90;;
17650;SDS011;26663;59.302;18.082;2022-09-27T05:07:32;3.42;;;2.20;;
17650;SDS011;26663;59.302;18.082;2022-09-27T05:10:41;1.58;;;1.48;;
17650;SDS011;26663;59.302;18.082;2022-09-27T05:13:46;2.95;;;1.45;;
17650;SDS011;26663;59.302;18.082;2022-09-27T05:16:52;1.40;;;1.40;;
17650;SDS011;26663;59.302;18.082;2022-09-27T05:20:19;1.50;;;1.38;;
17650;SDS011;26663;59.302;18.082;2022-09-27T05:23:47;1.30;;;1.30;;
17650;SDS011;26663;59.302;18.082;2022-09-27T05:26:51;1.60;;;1.60;;
17650;SDS011;26663;59.302;18.082;2022-09-27T05:29:55;2.38;;;1.60;;
17650;SDS011;26663;59.302;18.082;2022-09-27T05:33:21;2.60;;;1.73;;
17650;SDS011;26663;59.302;18.082;2022-09-27T05:36:45;3.35;;;1.30;;
17650;SDS011;26663;59.302;18.082;2022-09-27T05:39:50;6.68;;;1.48;;
17650;SDS011;26663;59.302;18.082;2022-09-27T05:42:55;5.00;;;1.60;;
17650;SDS011;26663;59.302;18.082;2022-09-27T05:45:59;2.42;;;1.35;;
17650;SDS011;26663;59.302;18.082;2022-09-27T05:49:06;4.78;;;2.05;;
17650;SDS011;26663;59.302;18.082;2022-09-27T05:52:10;1.70;;;1.60;;
17650;SDS011;26663;59.302;18.082;2022-09-27T05:55:20;4.40;;;1.40;;
17650;SDS011;26663;59.302;18.082;2022-09-27T05:58:25;1.65;;;1.20;;
17650;SDS011;26663;59.302;18.082;2022-09-27T06:01:43;1.52;;;1.27;;
17650;SDS011;26663;59.302;18.082;2022-09-27T06:05:21;1.45;;;1.35;;
17650;SDS011;26663;59.302;18.082;2022-09-27T06:08:44;1.95;;;1.40;;
17650;SDS011;26663;59.302;18.082;2022-09-27T06:14:08;2.03;;;1.40;;
17650;SDS011;26663;59.302;18.082;2022-09-27T06:17:25;1.45;;;1.35;;
17650;SDS011;26663;59.302;18.082;2022-09-27T06:20:31;2.25;;;1.20;;
17650;SDS011;26663;59.302;18.082;2022-09-27T06:23:36;5.45;;;1.63;;
17650;SDS011;26663;59.302;18.082;2022-09-27T06:26:48;1.55;;;1.45;;
17650;SDS011;26663;59.302;18.082;2022-09-27T06:30:03;3.50;;;1.40;;
17650;SDS011;26663;59.302;18.082;2022-09-27T06:33:29;3.15;;;1.60;;
17650;SDS011;26663;59.302;18.082;2022-09-27T06:36:37;2.20;;;1.80;;
17650;SDS011;26663;59.302;18.082;2022-09-27T06:39:42;4.03;;;1.88;;
17650;SDS011;26663;59.302;18.082;2022-09-27T06:43:08;4.50;;;2.42;;
17650;SDS011;26663;59.302;18.082;2022-09-27T06:46:35;2.33;;;1.42;;
17650;SDS011;26663;59.302;18.082;2022-09-27T06:50:00;2.20;;;1.45;;
17650;SDS011;26663;59.302;18.082;2022-09-27T06:53:09;1.45;;;1.30;;
17650;SDS011;26663;59.302;18.082;2022-09-27T06:56:16;1.95;;;1.50;;
17650;SDS011;26663;59.302;18.082;2022-09-27T06:59:25;1.83;;;1.52;;
17650;SDS011;26663;59.302;18.082;2022-09-27T07:03:09;4.55;;;1.52;;
17650;SDS011;26663;59.302;18.082;2022-09-27T07:06:45;6.03;;;1.40;;
17650;SDS011;26663;59.302;18.082;2022-09-27T07:10:03;2.47;;;1.35;;
17650;SDS011;26663;59.302;18.082;2022-09-27T07:13:12;1.73;;;1.30;;
17650;SDS011;26663;59.302;18.082;2022-09-27T07:16:17;1.60;;;1.20;;
17650;SDS011;26663;59.302;18.082;2022-09-27T07:19:24;5.03;;;1.40;;
17650;SDS011;26663;59.302;18.082;2022-09-27T07:22:29;1.95;;;1.40;;
17650;SDS011;26663;59.302;18.082;2022-09-27T07:25:37;1.80;;;1.63;;
17650;SDS011;26663;59.302;18.082;2022-09-27T07:28:42;1.60;;;1.50;;
17650;SDS011;26663;59.302;18.082;2022-09-27T07:31:50;2.55;;;1.58;;
17650;SDS011;26663;59.302;18.082;2022-09-27T07:34:57;2.45;;;1.40;;
17650;SDS011;26663;59.302;18.082;2022-09-27T07:38:02;5.18;;;1.33;;
17650;SDS011;26663;59.302;18.082;2022-09-27T07:41:08;2.58;;;2.08;;
17650;SDS011;26663;59.302;18.082;2022-09-27T07:44:16;4.00;;;1.45;;
17650;SDS011;26663;59.302;18.082;2022-09-27T07:47:39;1.55;;;1.15;;
17650;SDS011;26663;59.302;18.082;2022-09-27T07:51:18;4.25;;;1.50;;
17650;SDS011;26663;59.302;18.082;2022-09-27T07:54:40;3.88;;;1.50;;
17650;SDS011;26663;59.302;18.082;2022-09-27T07:58:04;1.85;;;1.48;;
17650;SDS011;26663;59.302;18.082;2022-09-27T08:01:10;2.97;;;1.60;;
17650;SDS011;26663;59.302;18.082;2022-09-27T08:04:16;3.22;;;1.40;;
17650;SDS011;26663;59.302;18.082;2022-09-27T08:07:23;2.90;;;1.50;;
17650;SDS011;26663;59.302;18.082;2022-09-27T08:10:30;2.60;;;2.10;;
17650;SDS011;26663;59.302;18.082;2022-09-27T08:13:35;7.05;;;1.58;;
17650;SDS011;26663;59.302;18.082;2022-09-27T08:16:41;3.65;;;1.60;;
17650;SDS011;26663;59.302;18.082;2022-09-27T08:19:52;4.10;;;2.08;;
17650;SDS011;26663;59.302;18.082;2022-09-27T08:23:18;11.18;;;1.92;;
17650;SDS011;26663;59.302;18.082;2022-09-27T08:26:30;4.95;;;1.67;;
17650;SDS011;26663;59.302;18.082;2022-09-27T08:30:01;4.25;;;1.95;;
17650;SDS011;26663;59.302;18.082;2022-09-27T08:33:11;4.38;;;1.85;;
17650;SDS011;26663;59.302;18.082;2022-09-27T08:36:16;2.38;;;2.17;;
17650;SDS011;26663;59.302;18.082;2022-09-27T08:39:23;4.28;;;2.05;;
17650;SDS011;26663;59.302;18.082;2022-09-27T08:42:30;2.47;;;2.25;;
17650;SDS011;26663;59.302;18.082;2022-09-27T08:45:45;4.32;;;2.42;;
17650;SDS011;26663;59.302;18.082;2022-09-27T08:49:11;2.97;;;2.45;;
17650;SDS011;26663;59.302;18.082;2022-09-27T08:52:21;2.75;;;2.58;;
17650;SDS011;26663;59.302;18.082;2022-09-27T08:55:34;4.00;;;2.78;;
17650;SDS011;26663;59.302;18.082;2022-09-27T08:58:48;2.90;;;2.60;;
17650;SDS011;26663;59.302;18.082;2022-09-27T09:01:59;3.00;;;2.80;;
17650;SDS011;26663;59.302;18.082;2022-09-27T09:05:10;3.38;;;3.10;;
17650;SDS011;26663;59.302;18.082;2022-09-27T09:08:23;4.32;;;3.20;;
17650;SDS011;26663;59.302;18.082;2022-09-27T09:11:42;9.43;;;3.58;;
17650;SDS011;26663;59.302;18.082;2022-09-27T09:15:19;3.10;;;2.95;;
17650;SDS011;26663;59.302;18.082;2022-09-27T09:18:41;5.70;;;3.92;;
17650;SDS011;26663;59.302;18.082;2022-09-27T09:22:21;4.60;;;4.30;;
17650;SDS011;26663;59.302;18.082;2022-09-27T09:25:44;4.22;;;3.95;;
17650;SDS011;26663;59.302;18.082;2022-09-27T09:29:00;4.32;;;4.07;;
17650;SDS011;26663;59.302;18.082;2022-09-27T09:32:16;4.47;;;4.10;;
17650;SDS011;26663;59.302;18.082;2022-09-27T09:35:33;3.55;;;3.45;;
17650;SDS011;26663;59.302;18.082;2022-09-27T09:38:42;4.28;;;4.15;;
17650;SDS011;26663;59.302;18.082;2022-09-27T09:42:00;4.10;;;3.80;;
17650;SDS011;26663;59.302;18.082;2022-09-27T09:45:14;4.30;;;3.88;;
17650;SDS011;26663;59.302;18.082;2022-09-27T09:48:23;4.32;;;4.03;;
17650;SDS011;26663;59.302;18.082;2022-09-27T09:51:37;3.78;;;3.65;;
17650;SDS011;26663;59.302;18.082;2022-09-27T09:54:46;5.18;;;3.83;;
17650;SDS011;26663;59.302;18.082;2022-09-27T09:57:58;4.85;;;4.45;;
17650;SDS011;26663;59.302;18.082;2022-09-27T10:01:18;4.13;;;3.92;;
17650;SDS011;26663;59.302;18.082;2022-09-27T10:04:25;4.32;;;4.13;;
17650;SDS011;26663;59.302;18.082;2022-09-27T10:07:35;4.95;;;4.55;;
17650;SDS011;26663;59.302;18.082;2022-09-27T10:10:41;5.70;;;5.20;;
17650;SDS011;26663;59.302;18.082;2022-09-27T10:14:10;5.00;;;4.65;;
17650;SDS011;26663;59.302;18.082;2022-09-27T10:17:23;4.75;;;4.35;;
17650;SDS011;26663;59.302;18.082;2022-09-27T10:20:32;5.43;;;5.03;;
17650;SDS011;26663;59.302;18.082;2022-09-27T10:27:41;5.30;;;5.00;;
17650;SDS011;26663;59.302;18.082;2022-09-27T10:30:54;6.60;;;5.75;;
17650;SDS011;26663;59.302;18.082;2022-09-27T10:34:04;7.20;;;6.70;;
17650;SDS011;26663;59.302;18.082;2022-09-27T10:37:17;6.75;;;6.35;;
17650;SDS011;26663;59.302;18.082;2022-09-27T10:40:44;9.55;;;6.55;;
17650;SDS011;26663;59.302;18.082;2022-09-27T10:43:50;7.95;;;7.28;;
17650;SDS011;26663;59.302;18.082;2022-09-27T10:47:05;8.18;;;7.47;;
17650;SDS011;26663;59.302;18.082;2022-09-27T10:50:26;10.52;;;9.00;;
17650;SDS011;26663;59.302;18.082;2022-09-27T10:54:02;9.35;;;8.48;;
17650;SDS011;26663;59.302;18.082;2022-09-27T10:57:15;9.45;;;8.65;;
17650;SDS011;26663;59.302;18.082;2022-09-27T11:00:23;12.43;;;9.35;;
17650;SDS011;26663;59.302;18.082;2022-09-27T11:03:31;14.43;;;9.48;;
17650;SDS011;26663;59.302;18.082;2022-09-27T11:06:41;11.30;;;9.32;;
17650;SDS011;26663;59.302;18.082;2022-09-27T11:09:47;13.32;;;9.85;;
17650;SDS011;26663;59.302;18.082;2022-09-27T11:13:05;11.88;;;10.43;;
17650;SDS011;26663;59.302;18.082;2022-09-27T11:16:19;13.15;;;10.07;;
17650;SDS011;26663;59.302;18.082;2022-09-27T11:19:39;12.63;;;10.82;;
17650;SDS011;26663;59.302;18.082;2022-09-27T11:23:18;13.48;;;12.07;;
17650;SDS011;26663;59.302;18.082;2022-09-27T11:26:35;14.82;;;12.52;;
17650;SDS011;26663;59.302;18.082;2022-09-27T11:29:54;14.45;;;13.02;;
17650;SDS011;26663;59.302;18.082;2022-09-27T11:33:23;15.95;;;13.00;;
17650;SDS011;26663;59.302;18.082;2022-09-27T11:36:55;13.70;;;12.27;;
17650;SDS011;26663;59.302;18.082;2022-09-27T11:40:20;14.35;;;12.93;;
17650;SDS011;26663;59.302;18.082;2022-09-27T11:43:42;17.30;;;13.52;;
17650;SDS011;26663;59.302;18.082;2022-09-27T11:47:22;18.23;;;12.95;;
17650;SDS011;26663;59.302;18.082;2022-09-27T11:50:42;16.88;;;13.38;;
17650;SDS011;26663;59.302;18.082;2022-09-27T11:54:04;15.85;;;12.88;;
17650;SDS011;26663;59.302;18.082;2022-09-27T11:57:29;17.05;;;13.50;;
17650;SDS011;26663;59.302;18.082;2022-09-27T12:00:41;15.73;;;12.80;;
17650;SDS011;26663;59.302;18.082;2022-09-27T12:04:20;19.98;;;13.23;;
17650;SDS011;26663;59.302;18.082;2022-09-27T12:07:50;18.60;;;12.80;;
17650;SDS011;26663;59.302;18.082;2022-09-27T12:11:04;14.60;;;12.55;;
17650;SDS011;26663;59.302;18.082;2022-09-27T12:14:17;15.20;;;13.70;;
17650;SDS011;26663;59.302;18.082;2022-09-27T12:17:32;15.00;;;12.85;;
17650;SDS011;26663;59.302;18.082;2022-09-27T12:20:39;19.75;;;13.23;;
17650;SDS011;26663;59.302;18.082;2022-09-27T12:23:46;15.05;;;12.27;;
17650;SDS011;26663;59.302;18.082;2022-09-27T12:27:12;15.30;;;12.50;;
17650;SDS011;26663;59.302;18.082;2022-09-27T12:30:23;16.42;;;12.73;;
17650;SDS011;26663;59.302;18.082;2022-09-27T12:33:28;17.10;;;13.02;;
17650;SDS011;26663;59.302;18.082;2022-09-27T12:36:40;14.38;;;13.07;;
17650;SDS011;26663;59.302;18.082;2022-09-27T12:39:51;17.80;;;12.90;;
17650;SDS011;26663;59.302;18.082;2022-09-27T12:43:05;17.33;;;12.30;;
17650;SDS011;26663;59.302;18.082;2022-09-27T12:46:44;12.85;;;11.63;;
17650;SDS011;26663;59.302;18.082;2022-09-27T12:50:00;15.43;;;12.65;;
17650;SDS011;26663;59.302;18.082;2022-09-27T12:53:11;14.10;;;12.32;;
17650;SDS011;26663;59.302;18.082;2022-09-27T12:56:31;15.82;;;11.82;;
17650;SDS011;26663;59.302;18.082;2022-09-27T12:59:49;17.10;;;12.13;;
17650;SDS011;26663;59.302;18.082;2022-09-27T13:03:24;13.60;;;12.20;;
17650;SDS011;26663;59.302;18.082;2022-09-27T13:06:54;19.55;;;12.13;;
17650;SDS011;26663;59.302;18.082;2022-09-27T13:10:25;14.98;;;11.77;;
17650;SDS011;26663;59.302;18.082;2022-09-27T13:14:00;12.32;;;11.02;;
17650;SDS011;26663;59.302;18.082;2022-09-27T13:25:45;12.05;;;10.77;;
17650;SDS011;26663;59.302;18.082;2022-09-27T13:29:23;19.38;;;11.70;;
17650;SDS011;26663;59.302;18.082;2022-09-27T13:32:38;15.52;;;12.73;;
17650;SDS011;26663;59.302;18.082;2022-09-27T13:39:18;12.45;;;11.18;;
17650;SDS011;26663;59.302;18.082;2022-09-27T13:42:44;15.32;;;10.98;;
17650;SDS011;26663;59.302;18.082;2022-09-27T13:45:58;15.48;;;11.70;;
17650;SDS011;26663;59.302;18.082;2022-09-27T13:49:12;12.60;;;10.57;;
17650;SDS011;26663;59.302;18.082;2022-09-27T13:52:41;11.15;;;10.15;;
17650;SDS011;26663;59.302;18.082;2022-09-27T13:55:58;17.95;;;10.18;;
17650;SDS011;26663;59.302;18.082;2022-09-27T13:59:12;14.20;;;10.50;;
17650;SDS011;26663;59.302;18.082;2022-09-27T14:02:22;11.07;;;9.98;;
17650;SDS011;26663;59.302;18.082;2022-09-27T14:05:33;11.00;;;9.90;;
17650;SDS011;26663;59.302;18.082;2022-09-27T14:08:44;12.90;;;10.13;;
17650;SDS011;26663;59.302;18.082;2022-09-27T14:11:53;10.40;;;9.40;;
17650;SDS011;26663;59.302;18.082;2022-09-27T14:15:02;12.98;;;10.20;;
17650;SDS011;26663;59.302;18.082;2022-09-27T14:18:12;14.63;;;9.45;;
17650;SDS011;26663;59.302;18.082;2022-09-27T14:21:25;12.07;;;10.00;;
17650;SDS011;26663;59.302;18.082;2022-09-27T14:24:46;12.20;;;10.40;;
17650;SDS011;26663;59.302;18.082;2022-09-27T14:27:59;10.25;;;9.15;;
17650;SDS011;26663;59.302;18.082;2022-09-27T14:31:13;12.98;;;9.45;;
17650;SDS011;26663;59.302;18.082;2022-09-27T14:34:40;12.88;;;9.25;;
17650;SDS011;26663;59.302;18.082;2022-09-27T14:37:45;13.45;;;10.05;;
17650;SDS011;26663;59.302;18.082;2022-09-27T14:40:53;13.57;;;9.88;;
17650;SDS011;26663;59.302;18.082;2022-09-27T14:44:03;9.55;;;8.65;;
17650;SDS011;26663;59.302;18.082;2022-09-27T14:47:16;17.25;;;9.18;;
17650;SDS011;26663;59.302;18.082;2022-09-27T14:50:26;18.48;;;10.10;;
17650;SDS011;26663;59.302;18.082;2022-09-27T14:53:32;17.58;;;8.80;;
17650;SDS011;26663;59.302;18.082;2022-09-27T14:56:39;15.73;;;8.55;;
17650;SDS011;26663;59.302;18.082;2022-09-27T14:59:45;13.10;;;8.45;;
17650;SDS011;26663;59.302;18.082;2022-09-27T15:02:51;10.02;;;8.50;;
17650;SDS011;26663;59.302;18.082;2022-09-27T15:05:57;15.30;;;8.32;;
17650;SDS011;26663;59.302;18.082;2022-09-27T15:09:03;13.35;;;8.75;;
17650;SDS011;26663;59.302;18.082;2022-09-27T15:12:09;9.23;;;8.15;;
17650;SDS011;26663;59.302;18.082;2022-09-27T15:15:20;12.52;;;7.57;;
17650;SDS011;26663;59.302;18.082;2022-09-27T15:18:28;9.27;;;8.43;;
17650;SDS011;26663;59.302;18.082;2022-09-27T15:21:37;8.07;;;7.38;;
17650;SDS011;26663;59.302;18.082;2022-09-27T15:24:42;11.27;;;7.70;;
17650;SDS011;26663;59.302;18.082;2022-09-27T15:27:50;8.43;;;7.72;;
17650;SDS011;26663;59.302;18.082;2022-09-27T15:30:58;10.57;;;7.53;;
17650;SDS011;26663;59.302;18.082;2022-09-27T15:34:03;8.57;;;7.80;;
17650;SDS011;26663;59.302;18.082;2022-09-27T15:37:10;8.55;;;7.85;;
17650;SDS011;26663;59.302;18.082;2022-09-27T15:44:18;7.88;;;7.18;;
17650;SDS011;26663;59.302;18.082;2022-09-27T15:47:48;7.22;;;6.50;;
17650;SDS011;26663;59.302;18.082;2022-09-27T15:50:54;7.15;;;6.55;;
17650;SDS011;26663;59.302;18.082;2022-09-27T15:53:59;8.82;;;7.07;;
17650;SDS011;26663;59.302;18.082;2022-09-27T15:57:04;10.35;;;7.20;;
17650;SDS011;26663;59.302;18.082;2022-09-27T16:00:12;8.35;;;7.57;;
17650;SDS011;26663;59.302;18.082;2022-09-27T16:03:21;15.85;;;6.93;;
17650;SDS011;26663;59.302;18.082;2022-09-27T16:06:27;8.43;;;7.70;;
17650;SDS011;26663;59.302;18.082;2022-09-27T16:09:32;8.85;;;7.95;;
17650;SDS011;26663;59.302;18.082;2022-09-27T16:12:36;9.98;;;7.60;;
17650;SDS011;26663;59.302;18.082;2022-09-27T16:15:41;9.48;;;8.10;;
17650;SDS011;26663;59.302;18.082;2022-09-27T16:18:48;8.75;;;7.88;;
17650;SDS011;26663;59.302;18.082;2022-09-27T16:21:53;13.65;;;9.02;;
17650;SDS011;26663;59.302;18.082;2022-09-27T16:24:58;12.48;;;8.52;;
17650;SDS011;26663;59.302;18.082;2022-09-27T16:28:03;8.60;;;7.82;;
17650;SDS011;26663;59.302;18.082;2022-09-27T16:31:17;10.35;;;8.25;;
17650;SDS011;26663;59.302;18.082;2022-09-27T16:34:23;12.38;;;8.45;;
17650;SDS011;26663;59.302;18.082;2022-09-27T16:37:28;13.20;;;9.35;;
17650;SDS011;26663;59.302;18.082;2022-09-27T16:40:34;11.45;;;8.60;;
17650;SDS011;26663;59.302;18.082;2022-09-27T16:43:39;9.98;;;8.05;;
17650;SDS011;26663;59.302;18.082;2022-09-27T16:46:45;12.48;;;8.98;;
17650;SDS011;26663;59.302;18.082;2022-09-27T16:49:51;12.50;;;8.50;;
17650;SDS011;26663;59.302;18.082;2022-09-27T16:53:14;12.88;;;9.00;;
17650;SDS011;26663;59.302;18.082;2022-09-27T16:56:19;13.40;;;9.70;;
17650;SDS011;26663;59.302;18.082;2022-09-27T16:59:24;12.65;;;9.30;;
17650;SDS011;26663;59.302;18.082;2022-09-27T17:02:29;19.15;;;13.65;;
17650;SDS011;26663;59.302;18.082;2022-09-27T17:05:36;16.58;;;12.10;;
17650;SDS011;26663;59.302;18.082;2022-09-27T17:08:41;12.30;;;9.95;;
17650;SDS011;26663;59.302;18.082;2022-09-27T17:11:45;42.92;;;28.88;;
17650;SDS011;26663;59.302;18.082;2022-09-27T17:14:50;24.08;;;15.27;;
17650;SDS011;26663;59.302;18.082;2022-09-27T17:17:55;12.38;;;10.27;;
17650;SDS011;26663;59.302;18.082;2022-09-27T17:21:02;11.50;;;9.73;;
17650;SDS011;26663;59.302;18.082;2022-09-27T17:24:08;9.80;;;8.85;;
17650;SDS011;26663;59.302;18.082;2022-09-27T17:27:14;11.80;;;9.77;;
17650;SDS011;26663;59.302;18.082;2022-09-27T17:30:19;10.10;;;9.13;;
17650;SDS011;26663;59.302;18.082;2022-09-27T17:33:24;11.40;;;9.60;;
17650;SDS011;26663;59.302;18.082;2022-09-27T17:36:31;11.57;;;9.05;;
17650;SDS011;26663;59.302;18.082;2022-09-27T17:39:37;11.68;;;9.38;;
17650;SDS011;26663;59.302;18.082;2022-09-27T17:42:43;11.43;;;8.90;;
17650;SDS011;26663;59.302;18.082;2022-09-27T17:45:48;11.70;;;8.60;;
17650;SDS011;26663;59.302;18.082;2022-09-27T17:48:53;10.95;;;8.35;;
17650;SDS011;26663;59.302;18.082;2022-09-27T17:52:16;9.80;;;8.80;;
17650;SDS011;26663;59.302;18.082;2022-09-27T17:55:21;9.90;;;8.90;;
17650;SDS011;26663;59.302;18.082;2022-09-27T17:58:27;8.80;;;8.00;;
17650;SDS011;26663;59.302;18.082;2022-09-27T18:01:32;11.50;;;8.75;;
17650;SDS011;26663;59.302;18.082;2022-09-27T18:04:39;10.55;;;8.82;;
17650;SDS011;26663;59.302;18.082;2022-09-27T18:07:46;12.75;;;8.07;;
17650;SDS011;26663;59.302;18.082;2022-09-27T18:10:51;8.88;;;8.02;;
17650;SDS011;26663;59.302;18.082;2022-09-27T18:13:56;15.80;;;8.57;;
17650;SDS011;26663;59.302;18.082;2022-09-27T18:17:02;8.88;;;8.07;;
17650;SDS011;26663;59.302;18.082;2022-09-27T18:20:08;8.73;;;8.00;;
17650;SDS011;26663;59.302;18.082;2022-09-27T18:23:15;9.02;;;8.10;;
17650;SDS011;26663;59.302;18.082;2022-09-27T18:26:20;11.63;;;8.05;;
17650;SDS011;26663;59.302;18.082;2022-09-27T18:29:26;11.15;;;8.43;;
17650;SDS011;26663;59.302;18.082;2022-09-27T18:32:32;9.60;;;7.82;;
17650;SDS011;26663;59.302;18.082;2022-09-27T18:35:36;9.48;;;8.45;;
17650;SDS011;26663;59.302;18.082;2022-09-27T18:38:43;9.27;;;7.95;;
17650;SDS011;26663;59.302;18.082;2022-09-27T18:41:48;8.75;;;7.95;;
17650;SDS011;26663;59.302;18.082;2022-09-27T18:44:55;9.02;;;8.02;;
17650;SDS011;26663;59.302;18.082;2022-09-27T18:48:00;8.65;;;7.63;;
17650;SDS011;26663;59.302;18.082;2022-09-27T18:51:05;8.90;;;7.43;;
17650;SDS011;26663;59.302;18.082;2022-09-27T18:54:13;8.70;;;7.30;;
17650;SDS011;26663;59.302;18.082;2022-09-27T18:57:20;9.10;;;7.88;;
17650;SDS011;26663;59.302;18.082;2022-09-27T19:00:26;11.43;;;8.10;;
17650;SDS011;26663;59.302;18.082;2022-09-27T19:03:31;9.85;;;7.65;;
17650;SDS011;26663;59.302;18.082;2022-09-27T19:06:37;9.85;;;7.90;;
17650;SDS011;26663;59.302;18.082;2022-09-27T19:09:45;16.98;;;7.95;;
17650;SDS011;26663;59.302;18.082;2022-09-27T19:12:49;8.57;;;7.88;;
17650;SDS011;26663;59.302;18.082;2022-09-27T19:15:57;7.82;;;7.20;;
17650;SDS011;26663;59.302;18.082;2022-09-27T19:19:03;7.53;;;7.03;;
17650;SDS011;26663;59.302;18.082;2022-09-27T19:22:10;8.18;;;7.40;;